createdAt,value
2023-05-05T00:00:36.789Z,55.5
2023-05-05T00:01:53.787Z,55.4
2023-05-05T00:03:10.906Z,55.2
2023-05-05T00:04:27.824Z,55
2023-05-05T00:05:44.796Z,55
2023-05-05T00:07:01.801Z,55.1
2023-05-05T00:08:18.787Z,55
2023-05-05T00:09:35.831Z,54.9
2023-05-05T00:10:52.808Z,55
2023-05-05T00:12:09.817Z,54.9
2023-05-05T00:13:26.804Z,54.9
2023-05-05T00:14:43.827Z,54.8
2023-05-05T00:16:00.826Z,54.9
2023-05-05T00:17:17.831Z,55.1
2023-05-05T00:18:34.820Z,55.3
2023-05-05T00:19:51.830Z,55.5
2023-05-05T00:21:08.876Z,55.7
2023-05-05T00:22:25.813Z,55.8
2023-05-05T00:23:42.828Z,55.8
2023-05-05T00:24:59.848Z,55.9
2023-05-05T00:26:16.815Z,55.9
2023-05-05T00:27:33.816Z,55.6
2023-05-05T00:28:50.822Z,55.3
2023-05-05T00:30:08.161Z,55.4
2023-05-05T00:31:24.872Z,55.7
2023-05-05T00:32:41.923Z,56
2023-05-05T00:33:58.867Z,56.5
2023-05-05T00:35:15.891Z,56.9
2023-05-05T00:36:32.917Z,57.2
2023-05-05T00:37:49.847Z,57.7
2023-05-05T00:39:06.848Z,57.8
2023-05-05T00:40:23.847Z,58
2023-05-05T00:41:40.915Z,58.2
2023-05-05T00:42:57.873Z,58.1
2023-05-05T00:44:14.904Z,57.7
2023-05-05T00:45:31.844Z,57.4
2023-05-05T00:46:49.061Z,57
2023-05-05T00:48:05.963Z,56.6
2023-05-05T00:49:22.929Z,56.1
2023-05-05T00:50:39.890Z,55.8
2023-05-05T00:51:57.504Z,55.5
2023-05-05T00:53:13.851Z,55.2
2023-05-05T00:54:30.915Z,55.1
2023-05-05T00:55:47.877Z,54.8
2023-05-05T00:57:04.908Z,55
2023-05-05T00:58:21.862Z,54.7
2023-05-05T00:59:38.907Z,54.8
2023-05-05T01:00:55.863Z,54.8
2023-05-05T01:02:13.176Z,54.6
2023-05-05T01:03:29.914Z,54.5
2023-05-05T01:04:47.020Z,54.4
2023-05-05T01:06:03.882Z,54.6
2023-05-05T01:07:20.888Z,54.5
2023-05-05T01:08:37.902Z,54.6
2023-05-05T01:10:04.404Z,54.6
2023-05-05T01:11:11.896Z,54.6
2023-05-05T01:12:28.947Z,54.6
2023-05-05T01:13:45.905Z,54.5
2023-05-05T01:15:03.018Z,54.2
2023-05-05T01:16:19.966Z,54
2023-05-05T01:17:36.999Z,54
2023-05-05T01:18:53.913Z,54
2023-05-05T01:20:11.073Z,54
2023-05-05T01:21:27.921Z,53.9
2023-05-05T01:22:44.964Z,53.7
2023-05-05T01:24:01.906Z,53.6
2023-05-05T01:25:18.905Z,53.6
2023-05-05T01:26:35.949Z,53.9
2023-05-05T01:27:52.976Z,54.5
2023-05-05T01:29:09.913Z,55.2
2023-05-05T01:30:26.942Z,55.8
2023-05-05T01:31:43.989Z,56.4
2023-05-05T01:33:01.063Z,56.8
2023-05-05T01:34:18.014Z,57.1
2023-05-05T01:35:34.948Z,57.2
2023-05-05T01:36:51.948Z,57.3
2023-05-05T01:38:08.957Z,57.3
2023-05-05T01:39:25.948Z,57
2023-05-05T01:40:42.922Z,56.8
2023-05-05T01:42:00.002Z,56.8
2023-05-05T01:43:16.990Z,56.5
2023-05-05T01:44:33.971Z,56.2
2023-05-05T01:45:51.020Z,56.2
2023-05-05T01:47:07.964Z,56.3
2023-05-05T01:48:24.942Z,56.2
2023-05-05T01:49:41.929Z,55.9
2023-05-05T01:50:59.089Z,55.8
2023-05-05T01:52:15.942Z,55.7
2023-05-05T01:53:32.954Z,55.6
2023-05-05T01:54:49.953Z,55.3
2023-05-05T01:56:07.047Z,55.3
2023-05-05T01:57:23.948Z,55.2
2023-05-05T01:58:40.962Z,55
2023-05-05T01:59:57.977Z,54.7
2023-05-05T02:01:14.996Z,54.8
2023-05-05T02:02:32.106Z,54.8
2023-05-05T02:03:48.959Z,54.8
2023-05-05T02:05:05.971Z,54.7
2023-05-05T02:06:23.562Z,54.6
2023-05-05T02:07:39.987Z,54.6
2023-05-05T02:08:57.000Z,54.8
2023-05-05T02:10:13.980Z,54.9
2023-05-05T02:11:31.036Z,54.9
2023-05-05T02:12:48.032Z,54.9
2023-05-05T02:14:04.964Z,55
2023-05-05T02:15:21.978Z,54.9
2023-05-05T02:16:39.029Z,54.9
2023-05-05T02:17:56.003Z,54.7
2023-05-05T02:19:13.061Z,54.8
2023-05-05T02:20:30.090Z,55.2
2023-05-05T02:21:47.226Z,55.8
2023-05-05T02:23:04.102Z,56.5
2023-05-05T02:24:21.088Z,57.1
2023-05-05T02:25:38.009Z,57.6
2023-05-05T02:26:55.055Z,58.1
2023-05-05T02:28:12.044Z,58.4
2023-05-05T02:29:29.028Z,58.5
2023-05-05T02:30:46.110Z,58.9
2023-05-05T02:32:03.079Z,59.2
2023-05-05T02:33:20.009Z,59.4
2023-05-05T02:34:37.059Z,59.2
2023-05-05T02:35:54.054Z,58.8
2023-05-05T02:37:11.092Z,58.5
2023-05-05T02:38:28.004Z,58.2
2023-05-05T02:39:45.042Z,57.8
2023-05-05T02:41:02.027Z,57.4
2023-05-05T02:42:19.015Z,57
2023-05-05T02:43:36.105Z,56.9
2023-05-05T02:44:53.072Z,56.7
2023-05-05T02:46:10.084Z,56.7
2023-05-05T02:47:27.054Z,56.6
2023-05-05T02:48:44.038Z,56.5
2023-05-05T02:50:01.052Z,56.5
2023-05-05T02:51:18.064Z,56.5
2023-05-05T02:52:35.094Z,56.7
2023-05-05T02:53:52.021Z,56.7
2023-05-05T02:55:09.047Z,56.6
2023-05-05T02:56:26.053Z,56.5
2023-05-05T02:57:43.038Z,56.6
2023-05-05T02:59:00.050Z,56.8
2023-05-05T03:00:17.073Z,56.9
2023-05-05T03:01:34.093Z,56.9
2023-05-05T03:02:51.182Z,57
2023-05-05T03:04:08.057Z,57
2023-05-05T03:05:25.139Z,56.9
2023-05-05T03:06:42.126Z,57
2023-05-05T03:07:59.092Z,57
2023-05-05T03:09:16.115Z,57
2023-05-05T03:10:33.083Z,57
2023-05-05T03:11:50.130Z,57.1
2023-05-05T03:13:07.141Z,57
2023-05-05T03:14:24.068Z,57.1
2023-05-05T03:15:41.076Z,57.2
2023-05-05T03:16:58.149Z,57.1
2023-05-05T03:18:15.066Z,57.2
2023-05-05T03:19:32.122Z,57.2
2023-05-05T03:20:49.092Z,57.2
2023-05-05T03:22:06.128Z,57.1
2023-05-05T03:23:23.157Z,57.2
2023-05-05T03:24:40.091Z,57.2
2023-05-05T03:25:57.702Z,57.1
2023-05-05T03:27:15.264Z,57.2
2023-05-05T03:28:32.163Z,57.4
2023-05-05T03:29:49.101Z,57.5
2023-05-05T03:31:06.123Z,57.9
2023-05-05T03:32:23.113Z,58.6
2023-05-05T03:33:40.145Z,59.3
2023-05-05T03:34:57.123Z,59.9
2023-05-05T03:36:14.091Z,60.4
2023-05-05T03:37:31.187Z,60.9
2023-05-05T03:38:48.203Z,61.1
2023-05-05T03:40:05.224Z,61.4
2023-05-05T03:41:22.129Z,61.6
2023-05-05T03:42:39.096Z,61.8
2023-05-05T03:43:56.105Z,61.8
2023-05-05T03:45:13.130Z,61.7
2023-05-05T03:46:30.106Z,61.6
2023-05-05T03:47:47.189Z,61.4
2023-05-05T03:49:04.126Z,61.3
2023-05-05T03:50:21.145Z,61
2023-05-05T03:51:38.114Z,60.9
2023-05-05T03:52:55.111Z,60.5
2023-05-05T03:54:12.139Z,60.2
2023-05-05T03:55:29.171Z,59.9
2023-05-05T03:56:46.110Z,59.6
2023-05-05T03:58:03.156Z,59.4
2023-05-05T03:59:20.140Z,59.2
2023-05-05T04:00:37.141Z,59.1
2023-05-05T04:01:54.248Z,59.4
2023-05-05T04:03:11.373Z,59.8
2023-05-05T04:04:28.167Z,60.1
2023-05-05T04:05:45.164Z,60.4
2023-05-05T04:07:02.186Z,60.6
2023-05-05T04:08:19.260Z,60.7
2023-05-05T04:09:36.177Z,60.8
2023-05-05T04:10:53.178Z,60.7
2023-05-05T04:12:10.178Z,60.7
2023-05-05T04:13:27.142Z,60.6
2023-05-05T04:14:44.220Z,60.6
2023-05-05T04:16:01.227Z,60.5
2023-05-05T04:17:18.211Z,60.3
2023-05-05T04:18:35.160Z,60.1
2023-05-05T04:19:52.173Z,59.7
2023-05-05T04:21:09.210Z,59.5
2023-05-05T04:22:26.215Z,59.3
2023-05-05T04:23:43.164Z,59.1
2023-05-05T04:25:00.224Z,59
2023-05-05T04:26:17.279Z,58.9
2023-05-05T04:27:34.223Z,58.9
2023-05-05T04:28:51.192Z,59.2
2023-05-05T04:30:08.454Z,59.1
2023-05-05T04:31:25.284Z,59.2
2023-05-05T04:32:42.261Z,59.1
2023-05-05T04:33:59.297Z,59
2023-05-05T04:35:16.284Z,58.9
2023-05-05T04:36:33.183Z,58.7
2023-05-05T04:37:50.226Z,58.4
2023-05-05T04:39:07.357Z,58.2
2023-05-05T04:40:24.252Z,58.3
2023-05-05T04:41:41.264Z,58.1
2023-05-05T04:42:58.285Z,58
2023-05-05T04:44:15.203Z,57.8
2023-05-05T04:45:32.245Z,57.7
2023-05-05T04:46:49.331Z,57.6
2023-05-05T04:48:06.317Z,57.4
2023-05-05T04:49:23.222Z,57.8
2023-05-05T04:50:40.220Z,58.2
2023-05-05T04:51:57.262Z,58.6
2023-05-05T04:53:14.246Z,59
2023-05-05T04:54:31.220Z,59.3
2023-05-05T04:55:48.248Z,59.3
2023-05-05T04:57:05.236Z,59.6
2023-05-05T04:58:22.244Z,59.9
2023-05-05T04:59:39.224Z,60.1
2023-05-05T05:00:56.895Z,60.1
2023-05-05T05:02:14.307Z,59.9
2023-05-05T05:03:31.324Z,59.5
2023-05-05T05:04:48.223Z,59.1
2023-05-05T05:06:05.296Z,58.6
2023-05-05T05:07:22.266Z,58.4
2023-05-05T05:08:39.250Z,58.1
2023-05-05T05:09:56.232Z,57.7
2023-05-05T05:11:13.279Z,57.8
2023-05-05T05:12:30.275Z,58.3
2023-05-05T05:13:47.253Z,58.2
2023-05-05T05:15:04.320Z,57.9
2023-05-05T05:16:21.399Z,58.2
2023-05-05T05:17:38.277Z,58.4
2023-05-05T05:18:55.267Z,58.5
2023-05-05T05:20:12.269Z,58.8
2023-05-05T05:21:29.301Z,58.5
2023-05-05T05:22:46.281Z,58.1
2023-05-05T05:24:03.265Z,58.2
2023-05-05T05:25:20.252Z,58.2
2023-05-05T05:26:37.282Z,57.7
2023-05-05T05:28:06.021Z,57.4
2023-05-05T05:29:11.286Z,56.9
2023-05-05T05:30:28.290Z,56.6
2023-05-05T05:31:45.343Z,55.9
2023-05-05T05:33:02.472Z,55.9
2023-05-05T05:34:19.280Z,55.6
2023-05-05T05:35:36.295Z,55.4
2023-05-05T05:36:53.292Z,55.6
2023-05-05T05:38:10.290Z,56.4
2023-05-05T05:39:27.304Z,56.8
2023-05-05T05:40:44.298Z,56.8
2023-05-05T05:42:01.346Z,57
2023-05-05T05:43:18.280Z,56.3
2023-05-05T05:44:35.289Z,56.4
2023-05-05T05:45:52.382Z,56.1
2023-05-05T05:47:09.307Z,55.8
2023-05-05T05:48:26.327Z,56.3
2023-05-05T05:49:43.375Z,56.3
2023-05-05T05:51:00.334Z,56.5
2023-05-05T05:52:17.310Z,56.2
2023-05-05T05:53:34.293Z,56.1
2023-05-05T05:54:51.335Z,55.9
2023-05-05T05:56:08.325Z,55.6
2023-05-05T05:57:25.319Z,55.4
2023-05-05T05:58:42.319Z,55.6
2023-05-05T06:00:01.124Z,55.2
2023-05-05T06:01:16.352Z,54.8
2023-05-05T06:02:33.477Z,54
2023-05-05T06:03:50.405Z,53.6
2023-05-05T06:05:07.327Z,53.3
2023-05-05T06:06:24.397Z,52.7
2023-05-05T06:07:41.315Z,52.7
2023-05-05T06:08:58.342Z,52.1
2023-05-05T06:10:27.054Z,51.6
2023-05-05T06:11:32.415Z,51.1
2023-05-05T06:12:49.395Z,50.6
2023-05-05T06:14:06.328Z,49.4
2023-05-05T06:15:23.332Z,49.2
2023-05-05T06:16:40.354Z,48.4
2023-05-05T06:17:57.438Z,47.6
2023-05-05T06:19:15.398Z,47.6
2023-05-05T06:20:32.384Z,46.4
2023-05-05T06:21:49.899Z,44.7
2023-05-05T06:23:06.413Z,44.2
2023-05-05T06:24:23.412Z,44.7
2023-05-05T06:25:40.355Z,45.2
2023-05-05T06:26:57.338Z,45.1
2023-05-05T06:28:14.367Z,44.2
2023-05-05T06:29:32.119Z,41.9
2023-05-05T06:30:49.366Z,40.8
2023-05-05T06:32:06.487Z,40.4
2023-05-05T06:33:23.336Z,40.7
2023-05-05T06:34:41.031Z,41
2023-05-05T06:35:58.372Z,41.4
2023-05-05T06:37:15.341Z,41.3
2023-05-05T06:38:32.395Z,41.5
2023-05-05T06:39:49.355Z,41.8
2023-05-05T06:41:06.443Z,41.7
2023-05-05T06:42:23.363Z,41.1
2023-05-05T06:43:40.399Z,41.3
2023-05-05T06:44:57.376Z,42
2023-05-05T06:46:14.419Z,42.3
2023-05-05T06:47:31.398Z,42.7
2023-05-05T06:48:48.382Z,43.5
2023-05-05T06:50:05.514Z,43.4
2023-05-05T06:51:22.493Z,42.7
2023-05-05T06:52:39.390Z,42.4
2023-05-05T06:53:56.395Z,42.5
2023-05-05T06:55:13.391Z,42
2023-05-05T06:56:30.581Z,40.8
2023-05-05T06:57:47.474Z,39.8
2023-05-05T06:59:04.504Z,39.7
2023-05-05T07:00:21.433Z,39.2
2023-05-05T07:01:38.458Z,39.2
2023-05-05T07:02:55.415Z,39.7
2023-05-05T07:04:12.415Z,39.3
2023-05-05T07:05:29.474Z,38.6
2023-05-05T07:06:46.457Z,38.5
2023-05-05T07:08:03.452Z,38.3
2023-05-05T07:09:20.420Z,38
2023-05-05T07:10:38.195Z,37.8
2023-05-05T07:11:55.417Z,36.8
2023-05-05T07:13:12.569Z,36.4
2023-05-05T07:14:29.639Z,36.6
2023-05-05T07:15:46.568Z,36.4
2023-05-05T07:17:03.447Z,36.7
2023-05-05T07:18:20.516Z,36.9
2023-05-05T07:19:37.429Z,36.2
2023-05-05T07:20:54.504Z,37.1
2023-05-05T07:22:11.427Z,36.7
2023-05-05T07:23:28.491Z,36.7
2023-05-05T07:24:45.491Z,37.2
2023-05-05T07:26:02.472Z,38.1
2023-05-05T07:27:19.502Z,38.6
2023-05-05T07:28:36.452Z,38.5
2023-05-05T07:29:53.552Z,37.8
2023-05-05T07:31:10.496Z,36.6
2023-05-05T07:32:27.499Z,35.9
2023-05-05T07:33:44.444Z,34.6
2023-05-05T07:35:01.432Z,34.6
2023-05-05T07:36:18.666Z,34.4
2023-05-05T07:37:35.477Z,35
2023-05-05T07:38:52.440Z,36
2023-05-05T07:40:09.782Z,36.2
2023-05-05T07:41:26.598Z,35.8
2023-05-05T07:42:43.684Z,35.8
2023-05-05T07:44:00.521Z,35.9
2023-05-05T07:45:17.804Z,36.3
2023-05-05T07:46:34.525Z,36.3
2023-05-05T07:47:51.641Z,36.4
2023-05-05T07:49:08.764Z,36.6
2023-05-05T07:50:25.526Z,35.6
2023-05-05T07:51:42.657Z,35.5
2023-05-05T07:53:10.455Z,35.6
2023-05-05T07:54:16.610Z,36.2
2023-05-05T07:55:33.507Z,35.3
2023-05-05T07:56:50.489Z,35.3
2023-05-05T07:58:07.568Z,34.6
2023-05-05T07:59:24.946Z,34.2
2023-05-05T08:00:41.782Z,33.8
2023-05-05T08:01:58.522Z,33.9
2023-05-05T08:03:15.779Z,33
2023-05-05T08:04:32.682Z,32.8
2023-05-05T08:05:51.683Z,33
2023-05-05T08:07:06.740Z,32.5
2023-05-05T08:08:23.562Z,32.8
2023-05-05T08:09:40.674Z,32.1
2023-05-05T08:10:57.521Z,32.1
2023-05-05T08:12:14.539Z,31.2
2023-05-05T08:13:31.620Z,31.3
2023-05-05T08:14:48.566Z,31.4
2023-05-05T08:16:05.785Z,32.3
2023-05-05T08:17:22.586Z,31.9
2023-05-05T08:18:39.609Z,31.4
2023-05-05T08:19:56.554Z,31.1
2023-05-05T08:21:14.032Z,31.1
2023-05-05T08:22:30.539Z,31.6
2023-05-05T08:23:47.599Z,31.6
2023-05-05T08:25:04.560Z,31.6
2023-05-05T08:26:21.627Z,32.2
2023-05-05T08:27:38.874Z,31.4
2023-05-05T08:28:55.820Z,32
2023-05-05T08:30:12.624Z,31.2
2023-05-05T08:31:29.914Z,31.2
2023-05-05T08:32:46.634Z,31.4
2023-05-05T08:34:03.654Z,31.5
2023-05-05T08:35:20.564Z,31.8
2023-05-05T08:36:37.635Z,32
2023-05-05T08:37:56.019Z,31.4
2023-05-05T08:39:11.605Z,31.3
2023-05-05T08:40:28.622Z,32
2023-05-05T08:41:46.474Z,31.4
2023-05-05T08:43:03.617Z,31.2
2023-05-05T08:44:20.931Z,31.3
2023-05-05T08:45:37.631Z,31.2
2023-05-05T08:46:54.778Z,30.9
2023-05-05T08:48:11.812Z,30.8
2023-05-05T08:49:28.897Z,30.8
2023-05-05T08:50:45.888Z,31.1
2023-05-05T08:52:02.593Z,30.4
2023-05-05T08:53:19.651Z,30.1
2023-05-05T08:54:36.640Z,30.4
2023-05-05T08:55:53.700Z,29.9
2023-05-05T08:57:10.821Z,29.8
2023-05-05T08:58:29.100Z,30.3
2023-05-05T08:59:44.588Z,30.3
2023-05-05T09:01:01.696Z,30.6
2023-05-05T09:02:19.158Z,30.1
2023-05-05T09:03:35.774Z,30.4
2023-05-05T09:04:52.615Z,30.4
2023-05-05T09:06:09.617Z,29.9
2023-05-05T09:07:26.644Z,29.5
2023-05-05T09:08:43.640Z,29.7
2023-05-05T09:10:00.644Z,30.2
2023-05-05T09:11:17.631Z,29.2
2023-05-05T09:12:34.621Z,28.7
2023-05-05T09:15:37.612Z,27.6
2023-05-05T09:16:54.712Z,29.4
2023-05-05T09:18:11.827Z,29.1
2023-05-05T09:19:28.678Z,28.4
2023-05-05T09:20:45.653Z,28.3
2023-05-05T09:22:02.662Z,28.3
2023-05-05T09:23:19.640Z,28.4
2023-05-05T09:24:36.676Z,27.7
2023-05-05T09:25:53.665Z,27.4
2023-05-05T09:27:10.811Z,28.2
2023-05-05T09:28:27.666Z,28.4
2023-05-05T09:29:44.662Z,28.2
2023-05-05T09:31:01.734Z,28.1
2023-05-05T09:32:18.670Z,28
2023-05-05T09:33:35.748Z,28.3
2023-05-05T09:34:52.678Z,28.6
2023-05-05T09:36:09.847Z,28.1
2023-05-05T09:37:26.664Z,27.9
2023-05-05T09:38:43.675Z,28.2
2023-05-05T09:40:00.682Z,28.2
2023-05-05T09:41:17.704Z,28.2
2023-05-05T09:42:34.682Z,28.1
2023-05-05T09:43:51.918Z,27.4
2023-05-05T09:45:08.850Z,27.8
2023-05-05T09:46:25.731Z,27.7
2023-05-05T09:47:42.816Z,28.1
2023-05-05T09:48:59.741Z,28
2023-05-05T09:50:16.726Z,27.5
2023-05-05T09:51:33.678Z,27.3
2023-05-05T09:52:50.700Z,26.4
2023-05-05T09:54:07.701Z,25.9
2023-05-05T09:55:24.705Z,26
2023-05-05T09:56:41.727Z,26.3
2023-05-05T09:57:58.736Z,26.6
2023-05-05T09:59:15.691Z,26.8
2023-05-05T10:00:32.717Z,27
2023-05-05T10:01:49.814Z,27.5
2023-05-05T10:03:06.907Z,27.6
2023-05-05T10:04:23.884Z,27.8
2023-05-05T10:05:40.745Z,27.4
2023-05-05T10:06:57.713Z,27.6
2023-05-05T10:08:14.747Z,27.4
2023-05-05T10:09:31.734Z,27.9
2023-05-05T10:10:48.770Z,28.7
2023-05-05T10:12:05.734Z,28.7
2023-05-05T10:13:22.732Z,28.4
2023-05-05T10:14:39.747Z,28.6
2023-05-05T10:15:57.823Z,28
2023-05-05T10:17:14.816Z,27.6
2023-05-05T10:18:31.831Z,27.1
2023-05-05T10:19:48.812Z,26
2023-05-05T10:21:05.816Z,26
2023-05-05T10:22:22.786Z,25.7
2023-05-05T10:23:39.745Z,25.9
2023-05-05T10:24:56.762Z,26.1
2023-05-05T10:26:13.795Z,26.5
2023-05-05T10:27:30.798Z,27
2023-05-05T10:28:47.804Z,26.4
2023-05-05T10:30:04.838Z,25.9
2023-05-05T10:31:25.610Z,26.4
2023-05-05T10:33:55.895Z,26.9
2023-05-05T10:35:12.898Z,27
2023-05-05T10:36:29.836Z,27
2023-05-05T10:37:46.869Z,26.8
2023-05-05T10:39:03.860Z,26.2
2023-05-05T10:40:20.837Z,26
2023-05-05T10:41:37.999Z,26.2
2023-05-05T10:42:54.785Z,25.4
2023-05-05T10:44:12.018Z,25.2
2023-05-05T10:45:29.052Z,25
2023-05-05T10:46:45.910Z,25.7
2023-05-05T10:48:02.977Z,25.7
2023-05-05T10:49:19.820Z,25.7
2023-05-05T10:50:37.360Z,25.9
2023-05-05T10:51:53.856Z,25.5
2023-05-05T10:53:10.916Z,25.1
2023-05-05T10:54:27.850Z,24.9
2023-05-05T10:55:44.815Z,25.1
2023-05-05T10:57:01.935Z,25.1
2023-05-05T10:58:18.807Z,24.9
2023-05-05T10:59:35.851Z,25.3
2023-05-05T11:00:53.028Z,24.8
2023-05-05T11:02:09.908Z,24.9
2023-05-05T11:03:27.114Z,24.2
2023-05-05T11:04:43.869Z,24.4
2023-05-05T11:06:00.939Z,24.7
2023-05-05T11:07:17.948Z,24.6
2023-05-05T11:08:34.965Z,25.5
2023-05-05T11:09:51.828Z,26.5
2023-05-05T11:11:08.855Z,26.2
2023-05-05T11:12:25.924Z,26.2
2023-05-05T11:13:42.881Z,26.2
2023-05-05T11:14:59.856Z,25.9
2023-05-05T11:16:16.885Z,24.9
2023-05-05T11:17:33.941Z,24.3
2023-05-05T11:18:50.896Z,23.8
2023-05-05T11:20:08.043Z,23.9
2023-05-05T11:21:24.978Z,23.6
2023-05-05T11:22:41.948Z,22.9
2023-05-05T11:23:58.967Z,22.7
2023-05-05T11:25:15.872Z,22.9
2023-05-05T11:26:32.866Z,22.8
2023-05-05T11:27:49.867Z,23
2023-05-05T11:29:06.927Z,23
2023-05-05T11:30:23.289Z,23.4
2023-05-05T11:31:39.331Z,23.2
2023-05-05T11:32:55.365Z,23
2023-05-05T11:34:11.298Z,22.9
2023-05-05T11:35:27.894Z,22.7
2023-05-05T11:36:45.009Z,21.6
2023-05-05T11:38:01.955Z,22
2023-05-05T11:39:18.326Z,22
2023-05-05T11:40:35.001Z,22.2
2023-05-05T11:41:51.905Z,21.8
2023-05-05T11:43:08.951Z,21.7
2023-05-05T11:44:25.270Z,22.2
2023-05-05T11:45:41.906Z,22.3
2023-05-05T11:47:01.747Z,22.1
2023-05-05T11:48:18.806Z,22.2
2023-05-05T11:49:36.072Z,22.4
2023-05-05T11:50:52.936Z,22.6
2023-05-05T11:52:09.988Z,23.4
2023-05-05T11:53:26.339Z,23.7
2023-05-05T11:54:42.382Z,23.5
2023-05-05T11:55:58.946Z,23.5
2023-05-05T11:57:15.287Z,23.1
2023-05-05T11:58:31.956Z,22.9
2023-05-05T11:59:49.596Z,22.5
2023-05-05T12:01:05.994Z,22.3
2023-05-05T12:02:23.017Z,22
2023-05-05T12:03:40.006Z,21.9
2023-05-05T12:04:57.014Z,21.8
2023-05-05T12:06:13.372Z,21.9
2023-05-05T12:07:29.443Z,22.3
2023-05-05T12:08:45.948Z,22.3
2023-05-05T12:10:02.947Z,22.1
2023-05-05T12:11:20.069Z,22.4
2023-05-05T12:12:37.124Z,22.2
2023-05-05T12:13:53.962Z,22.6
2023-05-05T12:15:10.988Z,22.9
2023-05-05T12:16:28.022Z,22.7
2023-05-05T12:17:45.214Z,22.8
2023-05-05T12:19:01.964Z,22.5
2023-05-05T12:20:19.203Z,22.3
2023-05-05T12:21:36.238Z,22.6
2023-05-05T12:22:53.027Z,22.7
2023-05-05T12:24:09.963Z,23.4
2023-05-05T12:25:26.990Z,23.2
2023-05-05T12:26:44.010Z,23
2023-05-05T12:28:00.940Z,23
2023-05-05T12:29:18.010Z,23.4
2023-05-05T12:30:35.033Z,23.5
2023-05-05T12:31:52.160Z,22.6
2023-05-05T12:33:09.013Z,22.9
2023-05-05T12:34:25.990Z,23.3
2023-05-05T12:35:43.073Z,23.5
2023-05-05T12:36:59.996Z,23.6
2023-05-05T12:38:17.061Z,23.8
2023-05-05T12:39:33.982Z,23.2
2023-05-05T12:40:50.391Z,23
2023-05-05T12:42:07.040Z,23.1
2023-05-05T12:43:23.995Z,23.1
2023-05-05T12:44:41.093Z,23.6
2023-05-05T12:45:58.035Z,23
2023-05-05T12:47:15.046Z,22.8
2023-05-05T12:48:32.016Z,22.7
2023-05-05T12:49:49.049Z,23.5
2023-05-05T12:51:06.012Z,23.6
2023-05-05T12:52:23.058Z,23.5
2023-05-05T12:53:39.609Z,23.2
2023-05-05T12:54:55.439Z,22.8
2023-05-05T12:56:11.468Z,22.5
2023-05-05T12:57:28.038Z,22.2
2023-05-05T12:58:45.032Z,22
2023-05-05T13:00:02.043Z,21.8
2023-05-05T13:01:19.166Z,22.6
2023-05-05T13:02:35.549Z,23.1
2023-05-05T13:03:51.414Z,23.5
2023-05-05T13:05:08.149Z,23.2
2023-05-05T13:06:25.098Z,22.9
2023-05-05T13:07:41.446Z,22.6
2023-05-05T13:08:57.433Z,22.1
2023-05-05T13:10:13.413Z,21.8
2023-05-05T13:11:29.428Z,21.5
2023-05-05T13:12:45.519Z,21.2
2023-05-05T13:14:01.446Z,20.9
2023-05-05T13:15:17.440Z,20.4
2023-05-05T13:16:33.455Z,20.5
2023-05-05T13:17:50.170Z,20.2
2023-05-05T13:19:06.731Z,20.3
2023-05-05T13:20:23.496Z,20.8
2023-05-05T13:21:40.068Z,20.3
2023-05-05T13:22:57.114Z,19.9
2023-05-05T13:24:25.817Z,20.3
2023-05-05T13:25:30.075Z,20.3
2023-05-05T13:26:47.093Z,20.3
2023-05-05T13:28:04.139Z,20.7
2023-05-05T13:29:21.122Z,21
2023-05-05T13:30:38.128Z,20.9
2023-05-05T13:31:55.060Z,21.3
2023-05-05T13:33:12.124Z,21.5
2023-05-05T13:34:28.501Z,21.5
2023-05-05T13:35:45.086Z,21.6
2023-05-05T13:37:02.099Z,21.7
2023-05-05T13:38:19.148Z,21.8
2023-05-05T13:39:36.254Z,21.7
2023-05-05T13:40:53.092Z,21.9
2023-05-05T13:42:10.162Z,22.5
2023-05-05T13:43:27.394Z,23.1
2023-05-05T13:44:44.108Z,23
2023-05-05T13:46:12.488Z,23.7
2023-05-05T13:47:18.303Z,23.7
2023-05-05T13:48:35.132Z,24.2
2023-05-05T13:49:52.117Z,24.8
2023-05-05T13:51:09.196Z,25
2023-05-05T13:52:26.199Z,25.4
2023-05-05T13:53:43.180Z,25.8
2023-05-05T13:55:00.150Z,25.6
2023-05-05T13:56:17.155Z,25.6
2023-05-05T13:57:34.159Z,25.7
2023-05-05T13:58:51.249Z,25.6
2023-05-05T14:00:08.249Z,24.7
2023-05-05T14:01:25.215Z,23.7
2023-05-05T14:02:42.355Z,23.2
2023-05-05T14:03:59.163Z,22.7
2023-05-05T14:05:16.226Z,22.5
2023-05-05T14:06:33.187Z,22.6
2023-05-05T14:07:50.263Z,22.4
2023-05-05T14:09:07.158Z,22.6
2023-05-05T14:10:24.241Z,22.7
2023-05-05T14:11:41.177Z,22.8
2023-05-05T14:12:58.797Z,22.8
2023-05-05T14:14:15.205Z,22.4
2023-05-05T14:15:32.638Z,21.9
2023-05-05T14:16:50.289Z,22
2023-05-05T14:18:06.278Z,22.3
2023-05-05T14:19:23.227Z,22.4
2023-05-05T14:20:40.169Z,22.2
2023-05-05T14:21:57.170Z,22.3
2023-05-05T14:23:14.220Z,22.7
2023-05-05T14:24:31.256Z,22.4
2023-05-05T14:25:48.369Z,22.3
2023-05-05T14:27:05.234Z,22.8
2023-05-05T14:28:22.301Z,23.1
2023-05-05T14:29:39.186Z,23.6
2023-05-05T14:30:56.246Z,23.5
2023-05-05T14:32:13.241Z,23.7
2023-05-05T14:33:30.256Z,23.6
2023-05-05T14:34:49.723Z,24.2
2023-05-05T14:36:04.279Z,24.6
2023-05-05T14:37:21.189Z,24.7
2023-05-05T14:38:38.223Z,25.5
2023-05-05T14:39:55.212Z,25.4
2023-05-05T14:41:12.383Z,25.1
2023-05-05T14:42:30.685Z,24.8
2023-05-05T14:43:47.263Z,24.3
2023-05-05T14:45:04.240Z,24.4
2023-05-05T14:46:21.283Z,24.6
2023-05-05T14:47:38.326Z,24.9
2023-05-05T14:48:55.294Z,24.7
2023-05-05T14:50:12.261Z,24.5
2023-05-05T14:51:29.281Z,24
2023-05-05T14:52:46.231Z,23.7
2023-05-05T14:54:03.865Z,23.4
2023-05-05T14:55:20.271Z,23.6
2023-05-05T14:56:37.372Z,23.9
2023-05-05T14:57:54.235Z,24.3
2023-05-05T14:59:11.261Z,24.8
2023-05-05T15:00:28.320Z,25.4
2023-05-05T15:01:45.380Z,25.7
2023-05-05T15:03:02.471Z,25.6
2023-05-05T15:04:19.326Z,25.3
2023-05-05T15:05:36.267Z,24.8
2023-05-05T15:06:53.257Z,24.3
2023-05-05T15:08:10.269Z,24.3
2023-05-05T15:09:27.275Z,23.8
2023-05-05T15:10:44.327Z,23.6
2023-05-05T15:12:01.316Z,23.8
2023-05-05T15:13:18.276Z,24.1
2023-05-05T15:14:35.334Z,24.3
2023-05-05T15:15:52.381Z,24.8
2023-05-05T15:17:09.315Z,24.7
2023-05-05T15:18:26.275Z,24.3
2023-05-05T15:19:43.307Z,24.1
2023-05-05T15:21:00.286Z,23.9
2023-05-05T15:22:17.293Z,24
2023-05-05T15:23:34.480Z,23.9
2023-05-05T15:24:51.333Z,24
2023-05-05T15:26:08.384Z,23.9
2023-05-05T15:27:25.470Z,24.4
2023-05-05T15:28:42.311Z,24.8
2023-05-05T15:29:59.397Z,25.1
2023-05-05T15:31:16.383Z,24.9
2023-05-05T15:32:33.397Z,25
2023-05-05T15:33:50.314Z,25.2
2023-05-05T15:35:07.452Z,25.5
2023-05-05T15:36:24.342Z,25.9
2023-05-05T15:37:41.325Z,26.2
2023-05-05T15:38:58.302Z,26.2
2023-05-05T15:40:15.308Z,26.4
2023-05-05T15:41:32.405Z,26.7
2023-05-05T15:42:49.459Z,27
2023-05-05T15:44:06.326Z,27.1
2023-05-05T15:45:23.302Z,27.2
2023-05-05T15:46:40.445Z,27.3
2023-05-05T15:47:57.460Z,27.4
2023-05-05T15:49:14.333Z,27.7
2023-05-05T15:50:31.318Z,28
2023-05-05T15:51:48.413Z,28.3
2023-05-05T15:53:05.345Z,28.1
2023-05-05T15:54:22.439Z,27.7
2023-05-05T15:55:39.442Z,27.2
2023-05-05T15:56:56.967Z,27.2
2023-05-05T15:58:14.467Z,27.6
2023-05-05T15:59:31.347Z,28.1
2023-05-05T16:00:48.449Z,28.3
2023-05-05T16:02:05.503Z,28
2023-05-05T16:03:22.483Z,27.6
2023-05-05T16:04:39.381Z,27.2
2023-05-05T16:05:56.393Z,27.3
2023-05-05T16:07:13.511Z,27.3
2023-05-05T16:08:30.445Z,27.2
2023-05-05T16:09:47.397Z,27.4
2023-05-05T16:11:04.381Z,28.6
2023-05-05T16:12:21.425Z,27.3
2023-05-05T16:13:38.581Z,27.1
2023-05-05T16:14:55.436Z,27.3
2023-05-05T16:16:12.373Z,26.6
2023-05-05T16:17:29.986Z,26.4
2023-05-05T16:18:47.487Z,26.6
2023-05-05T16:20:04.434Z,26.8
2023-05-05T16:21:21.581Z,27.4
2023-05-05T16:22:38.465Z,27.8
2023-05-05T16:23:55.436Z,27.9
2023-05-05T16:25:12.646Z,28.1
2023-05-05T16:26:29.696Z,28.1
2023-05-05T16:27:46.477Z,28.2
2023-05-05T16:29:03.668Z,28.1
2023-05-05T16:30:20.444Z,28
2023-05-05T16:31:37.476Z,27.9
2023-05-05T16:32:54.749Z,28
2023-05-05T16:34:11.440Z,27.9
2023-05-05T16:35:28.468Z,28.1
2023-05-05T16:36:45.444Z,27.9
2023-05-05T16:38:02.685Z,27.9
2023-05-05T16:39:20.521Z,28
2023-05-05T16:40:37.925Z,28.1
2023-05-05T16:41:54.448Z,28.1
2023-05-05T16:43:11.528Z,28.4
2023-05-05T16:44:28.638Z,28.5
2023-05-05T16:45:45.452Z,28.6
2023-05-05T16:47:02.498Z,28.3
2023-05-05T16:48:19.460Z,28.1
2023-05-05T16:49:36.561Z,28.1
2023-05-05T16:50:53.482Z,28.2
2023-05-05T16:52:10.427Z,28.3
2023-05-05T16:53:27.459Z,27.9
2023-05-05T16:54:44.509Z,27.9
2023-05-05T16:56:01.450Z,27.7
2023-05-05T16:57:18.474Z,27.7
2023-05-05T16:58:35.458Z,27.9
2023-05-05T16:59:52.590Z,27.9
2023-05-05T17:01:09.484Z,27.9
2023-05-05T17:02:26.478Z,28
2023-05-05T17:03:43.454Z,28
2023-05-05T17:05:00.567Z,28.2
2023-05-05T17:06:17.482Z,28.6
2023-05-05T17:07:34.579Z,28.4
2023-05-05T17:08:51.487Z,28.7
2023-05-05T17:10:08.474Z,28.7
2023-05-05T17:11:25.483Z,28.9
2023-05-05T17:12:42.588Z,28.9
2023-05-05T17:13:59.463Z,29